sensor_id;sensor_type;location;lat;lon;timestamp;P1;durP1;ratioP1;P2;durP2;ratioP2
59024;SDS011;44806;48.008;13.666;2024-02-28T00:02:02;26.80;;;12.57;;
59024;SDS011;44806;48.008;13.666;2024-02-28T00:04:29;24.00;;;12.27;;
59024;SDS011;44806;48.008;13.666;2024-02-28T00:06:56;22.90;;;10.40;;
59024;SDS011;44806;48.008;13.666;2024-02-28T00:09:23;22.45;;;10.52;;
59024;SDS011;44806;48.008;13.666;2024-02-28T00:11:51;24.80;;;12.88;;
59024;SDS011;44806;48.008;13.666;2024-02-28T00:14:18;22.95;;;11.00;;
59024;SDS011;44806;48.008;13.666;2024-02-28T00:16:45;24.60;;;12.98;;
59024;SDS011;44806;48.008;13.666;2024-02-28T00:19:14;26.15;;;12.70;;
59024;SDS011;44806;48.008;13.666;2024-02-28T00:21:42;26.60;;;12.65;;
59024;SDS011;44806;48.008;13.666;2024-02-28T00:24:09;27.95;;;13.98;;
59024;SDS011;44806;48.008;13.666;2024-02-28T00:26:37;25.02;;;12.50;;
59024;SDS011;44806;48.008;13.666;2024-02-28T00:29:06;28.50;;;13.05;;
59024;SDS011;44806;48.008;13.666;2024-02-28T00:31:33;23.67;;;10.82;;
59024;SDS011;44806;48.008;13.666;2024-02-28T00:34:03;23.92;;;11.05;;
59024;SDS011;44806;48.008;13.666;2024-02-28T00:36:33;22.95;;;10.80;;
59024;SDS011;44806;48.008;13.666;2024-02-28T00:39:00;19.15;;;9.07;;
59024;SDS011;44806;48.008;13.666;2024-02-28T00:41:27;20.48;;;9.70;;
59024;SDS011;44806;48.008;13.666;2024-02-28T00:43:54;19.65;;;8.50;;
59024;SDS011;44806;48.008;13.666;2024-02-28T00:46:21;19.33;;;8.98;;
59024;SDS011;44806;48.008;13.666;2024-02-28T00:48:48;21.65;;;10.00;;
59024;SDS011;44806;48.008;13.666;2024-02-28T00:51:15;20.05;;;9.73;;
59024;SDS011;44806;48.008;13.666;2024-02-28T00:53:43;19.55;;;8.88;;
59024;SDS011;44806;48.008;13.666;2024-02-28T00:56:10;22.33;;;10.02;;
59024;SDS011;44806;48.008;13.666;2024-02-28T00:58:37;16.73;;;6.60;;
59024;SDS011;44806;48.008;13.666;2024-02-28T01:01:05;17.20;;;8.70;;
59024;SDS011;44806;48.008;13.666;2024-02-28T01:03:32;19.95;;;8.48;;
59024;SDS011;44806;48.008;13.666;2024-02-28T01:05:59;20.63;;;9.32;;
59024;SDS011;44806;48.008;13.666;2024-02-28T01:08:29;27.13;;;12.88;;
59024;SDS011;44806;48.008;13.666;2024-02-28T01:10:57;25.00;;;11.73;;
59024;SDS011;44806;48.008;13.666;2024-02-28T01:13:25;22.58;;;10.18;;
59024;SDS011;44806;48.008;13.666;2024-02-28T01:15:52;22.80;;;11.73;;
59024;SDS011;44806;48.008;13.666;2024-02-28T01:18:19;16.92;;;8.27;;
59024;SDS011;44806;48.008;13.666;2024-02-28T01:20:46;25.25;;;12.73;;
59024;SDS011;44806;48.008;13.666;2024-02-28T01:23:13;21.45;;;10.48;;
59024;SDS011;44806;48.008;13.666;2024-02-28T01:25:40;22.50;;;10.23;;
59024;SDS011;44806;48.008;13.666;2024-02-28T01:28:08;18.02;;;8.13;;
59024;SDS011;44806;48.008;13.666;2024-02-28T01:30:35;20.92;;;9.63;;
59024;SDS011;44806;48.008;13.666;2024-02-28T01:33:02;21.27;;;10.43;;
59024;SDS011;44806;48.008;13.666;2024-02-28T01:35:29;26.77;;;11.80;;
59024;SDS011;44806;48.008;13.666;2024-02-28T01:37:57;20.95;;;8.73;;
59024;SDS011;44806;48.008;13.666;2024-02-28T01:40:24;20.45;;;9.48;;
59024;SDS011;44806;48.008;13.666;2024-02-28T01:42:51;22.27;;;9.88;;
59024;SDS011;44806;48.008;13.666;2024-02-28T01:45:20;24.42;;;10.45;;
59024;SDS011;44806;48.008;13.666;2024-02-28T01:47:51;23.33;;;9.70;;
59024;SDS011;44806;48.008;13.666;2024-02-28T01:50:19;20.70;;;9.10;;
59024;SDS011;44806;48.008;13.666;2024-02-28T01:52:46;24.52;;;9.65;;
59024;SDS011;44806;48.008;13.666;2024-02-28T01:55:13;22.05;;;10.80;;
59024;SDS011;44806;48.008;13.666;2024-02-28T01:57:40;22.88;;;11.43;;
59024;SDS011;44806;48.008;13.666;2024-02-28T02:00:07;25.00;;;9.88;;
59024;SDS011;44806;48.008;13.666;2024-02-28T02:02:36;26.70;;;13.63;;
59024;SDS011;44806;48.008;13.666;2024-02-28T02:05:04;22.83;;;10.70;;
59024;SDS011;44806;48.008;13.666;2024-02-28T02:07:31;18.30;;;8.43;;
59024;SDS011;44806;48.008;13.666;2024-02-28T02:09:58;19.50;;;9.18;;
59024;SDS011;44806;48.008;13.666;2024-02-28T02:12:25;25.40;;;12.55;;
59024;SDS011;44806;48.008;13.666;2024-02-28T02:14:52;21.65;;;10.45;;
59024;SDS011;44806;48.008;13.666;2024-02-28T02:17:19;20.92;;;9.02;;
59024;SDS011;44806;48.008;13.666;2024-02-28T02:19:48;22.63;;;11.15;;
59024;SDS011;44806;48.008;13.666;2024-02-28T02:22:15;23.13;;;11.38;;
59024;SDS011;44806;48.008;13.666;2024-02-28T02:24:44;24.20;;;12.35;;
59024;SDS011;44806;48.008;13.666;2024-02-28T02:27:11;23.10;;;9.45;;
59024;SDS011;44806;48.008;13.666;2024-02-28T02:29:38;23.30;;;11.52;;
59024;SDS011;44806;48.008;13.666;2024-02-28T02:32:05;19.90;;;9.95;;
59024;SDS011;44806;48.008;13.666;2024-02-28T02:34:32;19.92;;;9.63;;
59024;SDS011;44806;48.008;13.666;2024-02-28T02:36:59;23.23;;;9.73;;
59024;SDS011;44806;48.008;13.666;2024-02-28T02:39:26;20.23;;;8.88;;
59024;SDS011;44806;48.008;13.666;2024-02-28T02:41:54;30.02;;;12.95;;
59024;SDS011;44806;48.008;13.666;2024-02-28T02:44:20;26.60;;;12.55;;
59024;SDS011;44806;48.008;13.666;2024-02-28T02:46:48;22.10;;;9.82;;
59024;SDS011;44806;48.008;13.666;2024-02-28T02:49:15;27.02;;;13.00;;
59024;SDS011;44806;48.008;13.666;2024-02-28T02:51:43;24.08;;;10.45;;
59024;SDS011;44806;48.008;13.666;2024-02-28T02:54:10;25.67;;;11.90;;
59024;SDS011;44806;48.008;13.666;2024-02-28T02:56:40;26.15;;;12.68;;
59024;SDS011;44806;48.008;13.666;2024-02-28T02:59:09;22.70;;;10.05;;
59024;SDS011;44806;48.008;13.666;2024-02-28T03:01:36;21.48;;;10.55;;
59024;SDS011;44806;48.008;13.666;2024-02-28T03:04:03;23.25;;;11.30;;
59024;SDS011;44806;48.008;13.666;2024-02-28T03:06:30;26.00;;;11.70;;
59024;SDS011;44806;48.008;13.666;2024-02-28T03:08:58;25.38;;;10.43;;
59024;SDS011;44806;48.008;13.666;2024-02-28T03:11:25;27.73;;;12.35;;
59024;SDS011;44806;48.008;13.666;2024-02-28T03:13:52;21.20;;;9.25;;
59024;SDS011;44806;48.008;13.666;2024-02-28T03:16:20;29.23;;;11.60;;
59024;SDS011;44806;48.008;13.666;2024-02-28T03:18:47;29.67;;;13.48;;
59024;SDS011;44806;48.008;13.666;2024-02-28T03:21:14;24.35;;;11.98;;
59024;SDS011;44806;48.008;13.666;2024-02-28T03:23:42;28.00;;;13.27;;
59024;SDS011;44806;48.008;13.666;2024-02-28T03:26:09;24.23;;;12.55;;
59024;SDS011;44806;48.008;13.666;2024-02-28T03:28:37;26.33;;;13.32;;
59024;SDS011;44806;48.008;13.666;2024-02-28T03:31:04;24.20;;;10.55;;
59024;SDS011;44806;48.008;13.666;2024-02-28T03:33:32;23.38;;;10.15;;
59024;SDS011;44806;48.008;13.666;2024-02-28T03:36:00;23.60;;;11.63;;
59024;SDS011;44806;48.008;13.666;2024-02-28T03:38:27;22.92;;;10.18;;
59024;SDS011;44806;48.008;13.666;2024-02-28T03:40:54;25.30;;;12.52;;
59024;SDS011;44806;48.008;13.666;2024-02-28T03:43:21;26.55;;;13.05;;
59024;SDS011;44806;48.008;13.666;2024-02-28T03:45:48;26.67;;;14.05;;
59024;SDS011;44806;48.008;13.666;2024-02-28T03:48:15;19.17;;;9.45;;
59024;SDS011;44806;48.008;13.666;2024-02-28T03:50:44;27.73;;;10.13;;
59024;SDS011;44806;48.008;13.666;2024-02-28T03:53:11;23.88;;;11.23;;
59024;SDS011;44806;48.008;13.666;2024-02-28T03:55:38;23.77;;;12.80;;
59024;SDS011;44806;48.008;13.666;2024-02-28T03:58:05;25.48;;;11.93;;
59024;SDS011;44806;48.008;13.666;2024-02-28T04:00:33;22.55;;;10.93;;
59024;SDS011;44806;48.008;13.666;2024-02-28T04:03:00;24.55;;;11.20;;
59024;SDS011;44806;48.008;13.666;2024-02-28T04:05:28;26.95;;;11.65;;
59024;SDS011;44806;48.008;13.666;2024-02-28T04:07:56;24.08;;;10.63;;
59024;SDS011;44806;48.008;13.666;2024-02-28T04:10:23;29.23;;;13.55;;
59024;SDS011;44806;48.008;13.666;2024-02-28T04:12:50;29.70;;;13.82;;
59024;SDS011;44806;48.008;13.666;2024-02-28T04:15:17;25.08;;;11.88;;
59024;SDS011;44806;48.008;13.666;2024-02-28T04:17:44;21.95;;;9.95;;
59024;SDS011;44806;48.008;13.666;2024-02-28T04:20:12;27.60;;;12.40;;
59024;SDS011;44806;48.008;13.666;2024-02-28T04:22:39;21.38;;;9.52;;
59024;SDS011;44806;48.008;13.666;2024-02-28T04:25:08;21.80;;;10.20;;
59024;SDS011;44806;48.008;13.666;2024-02-28T04:27:36;24.65;;;11.55;;
59024;SDS011;44806;48.008;13.666;2024-02-28T04:30:03;19.77;;;9.50;;
59024;SDS011;44806;48.008;13.666;2024-02-28T04:32:31;29.02;;;13.73;;
59024;SDS011;44806;48.008;13.666;2024-02-28T04:34:58;21.90;;;10.15;;
59024;SDS011;44806;48.008;13.666;2024-02-28T04:37:25;25.77;;;12.13;;
59024;SDS011;44806;48.008;13.666;2024-02-28T04:39:52;26.35;;;12.85;;
59024;SDS011;44806;48.008;13.666;2024-02-28T04:42:20;24.65;;;11.13;;
59024;SDS011;44806;48.008;13.666;2024-02-28T04:44:47;24.38;;;12.70;;
59024;SDS011;44806;48.008;13.666;2024-02-28T04:47:14;21.95;;;11.50;;
59024;SDS011;44806;48.008;13.666;2024-02-28T04:49:41;23.00;;;10.02;;
59024;SDS011;44806;48.008;13.666;2024-02-28T04:52:08;22.73;;;10.02;;
59024;SDS011;44806;48.008;13.666;2024-02-28T04:54:35;29.27;;;13.00;;
59024;SDS011;44806;48.008;13.666;2024-02-28T04:57:02;31.15;;;14.55;;
59024;SDS011;44806;48.008;13.666;2024-02-28T04:59:30;27.73;;;13.30;;
59024;SDS011;44806;48.008;13.666;2024-02-28T05:01:57;24.05;;;11.38;;
59024;SDS011;44806;48.008;13.666;2024-02-28T05:04:24;21.27;;;10.80;;
59024;SDS011;44806;48.008;13.666;2024-02-28T05:06:51;26.60;;;13.70;;
59024;SDS011;44806;48.008;13.666;2024-02-28T05:09:18;22.45;;;11.07;;
59024;SDS011;44806;48.008;13.666;2024-02-28T05:11:45;25.90;;;12.05;;
59024;SDS011;44806;48.008;13.666;2024-02-28T05:14:12;29.58;;;14.35;;
59024;SDS011;44806;48.008;13.666;2024-02-28T05:16:41;27.92;;;12.02;;
59024;SDS011;44806;48.008;13.666;2024-02-28T05:19:08;22.17;;;11.38;;
59024;SDS011;44806;48.008;13.666;2024-02-28T05:21:39;20.67;;;9.52;;
59024;SDS011;44806;48.008;13.666;2024-02-28T05:24:07;24.95;;;11.75;;
59024;SDS011;44806;48.008;13.666;2024-02-28T05:26:34;24.42;;;12.55;;
59024;SDS011;44806;48.008;13.666;2024-02-28T05:29:02;24.48;;;11.25;;
59024;SDS011;44806;48.008;13.666;2024-02-28T05:31:29;23.40;;;12.27;;
59024;SDS011;44806;48.008;13.666;2024-02-28T05:33:59;31.83;;;14.23;;
59024;SDS011;44806;48.008;13.666;2024-02-28T05:36:27;24.98;;;11.52;;
59024;SDS011;44806;48.008;13.666;2024-02-28T05:38:55;20.42;;;9.43;;
59024;SDS011;44806;48.008;13.666;2024-02-28T05:41:23;23.77;;;10.32;;
59024;SDS011;44806;48.008;13.666;2024-02-28T05:43:51;27.60;;;12.98;;
59024;SDS011;44806;48.008;13.666;2024-02-28T05:46:18;21.58;;;11.02;;
59024;SDS011;44806;48.008;13.666;2024-02-28T05:48:47;29.38;;;13.85;;
59024;SDS011;44806;48.008;13.666;2024-02-28T05:51:15;27.30;;;13.35;;
59024;SDS011;44806;48.008;13.666;2024-02-28T05:53:42;27.67;;;13.23;;
59024;SDS011;44806;48.008;13.666;2024-02-28T05:56:10;29.02;;;12.40;;
59024;SDS011;44806;48.008;13.666;2024-02-28T05:58:40;25.50;;;11.95;;
59024;SDS011;44806;48.008;13.666;2024-02-28T06:01:08;29.48;;;12.93;;
59024;SDS011;44806;48.008;13.666;2024-02-28T06:03:35;20.60;;;9.70;;
59024;SDS011;44806;48.008;13.666;2024-02-28T06:06:02;28.50;;;13.50;;
59024;SDS011;44806;48.008;13.666;2024-02-28T06:08:32;20.13;;;8.65;;
59024;SDS011;44806;48.008;13.666;2024-02-28T06:11:00;16.67;;;8.52;;
59024;SDS011;44806;48.008;13.666;2024-02-28T06:13:28;27.35;;;12.35;;
59024;SDS011;44806;48.008;13.666;2024-02-28T06:15:55;20.65;;;10.02;;
59024;SDS011;44806;48.008;13.666;2024-02-28T06:18:22;22.80;;;10.80;;
59024;SDS011;44806;48.008;13.666;2024-02-28T06:20:52;24.98;;;12.48;;
59024;SDS011;44806;48.008;13.666;2024-02-28T06:23:19;25.08;;;10.68;;
59024;SDS011;44806;48.008;13.666;2024-02-28T06:25:48;25.15;;;12.18;;
59024;SDS011;44806;48.008;13.666;2024-02-28T06:28:15;23.52;;;12.10;;
59024;SDS011;44806;48.008;13.666;2024-02-28T06:30:43;27.90;;;12.90;;
59024;SDS011;44806;48.008;13.666;2024-02-28T06:33:11;23.85;;;11.57;;
59024;SDS011;44806;48.008;13.666;2024-02-28T06:35:38;20.98;;;9.95;;
59024;SDS011;44806;48.008;13.666;2024-02-28T06:38:05;26.02;;;12.77;;
59024;SDS011;44806;48.008;13.666;2024-02-28T06:40:32;26.50;;;13.70;;
59024;SDS011;44806;48.008;13.666;2024-02-28T06:43:01;26.27;;;14.27;;
59024;SDS011;44806;48.008;13.666;2024-02-28T06:45:28;28.55;;;13.02;;
59024;SDS011;44806;48.008;13.666;2024-02-28T06:47:55;31.05;;;12.18;;
59024;SDS011;44806;48.008;13.666;2024-02-28T06:50:22;25.27;;;12.68;;
59024;SDS011;44806;48.008;13.666;2024-02-28T06:52:49;25.42;;;12.18;;
59024;SDS011;44806;48.008;13.666;2024-02-28T06:55:18;26.60;;;11.65;;
59024;SDS011;44806;48.008;13.666;2024-02-28T06:57:46;26.90;;;12.63;;
59024;SDS011;44806;48.008;13.666;2024-02-28T07:00:14;32.53;;;14.55;;
59024;SDS011;44806;48.008;13.666;2024-02-28T07:02:43;23.40;;;11.00;;
59024;SDS011;44806;48.008;13.666;2024-02-28T07:05:11;26.65;;;13.23;;
59024;SDS011;44806;48.008;13.666;2024-02-28T07:07:38;29.95;;;13.27;;
59024;SDS011;44806;48.008;13.666;2024-02-28T07:10:06;26.80;;;13.73;;
59024;SDS011;44806;48.008;13.666;2024-02-28T07:12:33;27.25;;;13.75;;
59024;SDS011;44806;48.008;13.666;2024-02-28T07:15:00;30.65;;;14.05;;
59024;SDS011;44806;48.008;13.666;2024-02-28T07:17:28;25.35;;;12.82;;
59024;SDS011;44806;48.008;13.666;2024-02-28T07:19:56;27.42;;;13.80;;
59024;SDS011;44806;48.008;13.666;2024-02-28T07:22:23;29.30;;;13.73;;
59024;SDS011;44806;48.008;13.666;2024-02-28T07:24:50;29.50;;;13.18;;
59024;SDS011;44806;48.008;13.666;2024-02-28T07:27:17;30.48;;;12.48;;
59024;SDS011;44806;48.008;13.666;2024-02-28T07:29:44;26.38;;;12.23;;
59024;SDS011;44806;48.008;13.666;2024-02-28T07:32:11;25.38;;;11.35;;
59024;SDS011;44806;48.008;13.666;2024-02-28T07:34:40;22.00;;;11.07;;
59024;SDS011;44806;48.008;13.666;2024-02-28T07:37:07;28.45;;;12.88;;
59024;SDS011;44806;48.008;13.666;2024-02-28T07:39:34;31.95;;;16.48;;
59024;SDS011;44806;48.008;13.666;2024-02-28T07:42:01;34.50;;;14.98;;
59024;SDS011;44806;48.008;13.666;2024-02-28T07:44:28;29.13;;;13.82;;
59024;SDS011;44806;48.008;13.666;2024-02-28T07:46:56;37.35;;;17.02;;
59024;SDS011;44806;48.008;13.666;2024-02-28T07:49:24;28.83;;;14.20;;
59024;SDS011;44806;48.008;13.666;2024-02-28T07:51:52;30.77;;;15.35;;
59024;SDS011;44806;48.008;13.666;2024-02-28T07:54:20;31.83;;;15.40;;
59024;SDS011;44806;48.008;13.666;2024-02-28T07:56:47;31.63;;;15.27;;
59024;SDS011;44806;48.008;13.666;2024-02-28T07:59:14;28.02;;;14.85;;
59024;SDS011;44806;48.008;13.666;2024-02-28T08:01:41;31.10;;;14.40;;
59024;SDS011;44806;48.008;13.666;2024-02-28T08:04:08;28.65;;;15.80;;
59024;SDS011;44806;48.008;13.666;2024-02-28T08:06:35;38.47;;;15.60;;
59024;SDS011;44806;48.008;13.666;2024-02-28T08:09:04;28.85;;;13.45;;
59024;SDS011;44806;48.008;13.666;2024-02-28T08:11:31;34.50;;;15.80;;
59024;SDS011;44806;48.008;13.666;2024-02-28T08:13:58;30.73;;;14.85;;
59024;SDS011;44806;48.008;13.666;2024-02-28T08:16:25;31.73;;;13.35;;
59024;SDS011;44806;48.008;13.666;2024-02-28T08:18:52;33.53;;;15.07;;
59024;SDS011;44806;48.008;13.666;2024-02-28T08:21:18;29.92;;;13.02;;
59024;SDS011;44806;48.008;13.666;2024-02-28T08:23:45;29.25;;;14.02;;
59024;SDS011;44806;48.008;13.666;2024-02-28T08:26:14;30.40;;;13.73;;
59024;SDS011;44806;48.008;13.666;2024-02-28T08:28:41;29.20;;;14.50;;
59024;SDS011;44806;48.008;13.666;2024-02-28T08:31:08;29.40;;;14.10;;
59024;SDS011;44806;48.008;13.666;2024-02-28T08:33:35;29.02;;;13.63;;
59024;SDS011;44806;48.008;13.666;2024-02-28T08:36:03;29.42;;;15.15;;
59024;SDS011;44806;48.008;13.666;2024-02-28T08:38:30;35.25;;;18.42;;
59024;SDS011;44806;48.008;13.666;2024-02-28T08:40:57;32.15;;;16.08;;
59024;SDS011;44806;48.008;13.666;2024-02-28T08:43:25;31.30;;;15.85;;
59024;SDS011;44806;48.008;13.666;2024-02-28T08:45:52;36.00;;;18.50;;
59024;SDS011;44806;48.008;13.666;2024-02-28T08:48:20;33.50;;;16.95;;
59024;SDS011;44806;48.008;13.666;2024-02-28T08:50:47;36.25;;;16.35;;
59024;SDS011;44806;48.008;13.666;2024-02-28T08:53:15;32.55;;;15.80;;
59024;SDS011;44806;48.008;13.666;2024-02-28T08:55:42;36.20;;;16.70;;
59024;SDS011;44806;48.008;13.666;2024-02-28T08:58:09;29.42;;;14.98;;
59024;SDS011;44806;48.008;13.666;2024-02-28T09:00:37;28.60;;;13.85;;
59024;SDS011;44806;48.008;13.666;2024-02-28T09:03:05;28.25;;;14.45;;
59024;SDS011;44806;48.008;13.666;2024-02-28T09:05:32;34.08;;;17.85;;
59024;SDS011;44806;48.008;13.666;2024-02-28T09:07:59;31.85;;;16.02;;
59024;SDS011;44806;48.008;13.666;2024-02-28T09:10:26;29.52;;;16.33;;
59024;SDS011;44806;48.008;13.666;2024-02-28T09:12:54;33.65;;;15.95;;
59024;SDS011;44806;48.008;13.666;2024-02-28T09:15:20;31.52;;;17.70;;
59024;SDS011;44806;48.008;13.666;2024-02-28T09:17:49;31.77;;;15.27;;
59024;SDS011;44806;48.008;13.666;2024-02-28T09:20:16;30.98;;;15.57;;
59024;SDS011;44806;48.008;13.666;2024-02-28T09:22:43;29.10;;;14.68;;
59024;SDS011;44806;48.008;13.666;2024-02-28T09:25:10;37.42;;;15.35;;
59024;SDS011;44806;48.008;13.666;2024-02-28T09:27:37;31.52;;;16.20;;
59024;SDS011;44806;48.008;13.666;2024-02-28T09:30:05;34.78;;;17.58;;
59024;SDS011;44806;48.008;13.666;2024-02-28T09:32:33;32.65;;;16.05;;
59024;SDS011;44806;48.008;13.666;2024-02-28T09:35:01;33.38;;;17.35;;
59024;SDS011;44806;48.008;13.666;2024-02-28T09:37:29;28.85;;;14.88;;
59024;SDS011;44806;48.008;13.666;2024-02-28T09:39:56;33.00;;;15.45;;
59024;SDS011;44806;48.008;13.666;2024-02-28T09:42:23;30.27;;;14.80;;
59024;SDS011;44806;48.008;13.666;2024-02-28T09:44:51;35.38;;;16.40;;
59024;SDS011;44806;48.008;13.666;2024-02-28T09:47:18;30.23;;;14.00;;
59024;SDS011;44806;48.008;13.666;2024-02-28T09:49:45;27.80;;;14.95;;
59024;SDS011;44806;48.008;13.666;2024-02-28T09:52:17;32.78;;;17.80;;
59024;SDS011;44806;48.008;13.666;2024-02-28T09:54:45;33.53;;;15.38;;
59024;SDS011;44806;48.008;13.666;2024-02-28T09:57:12;32.78;;;16.92;;
59024;SDS011;44806;48.008;13.666;2024-02-28T09:59:39;31.30;;;15.50;;
59024;SDS011;44806;48.008;13.666;2024-02-28T10:02:07;28.98;;;15.60;;
59024;SDS011;44806;48.008;13.666;2024-02-28T10:04:36;29.42;;;13.82;;
59024;SDS011;44806;48.008;13.666;2024-02-28T10:07:10;28.27;;;13.80;;
59024;SDS011;44806;48.008;13.666;2024-02-28T10:09:39;29.60;;;14.98;;
59024;SDS011;44806;48.008;13.666;2024-02-28T10:12:06;33.15;;;15.27;;
59024;SDS011;44806;48.008;13.666;2024-02-28T10:14:34;30.63;;;13.10;;
59024;SDS011;44806;48.008;13.666;2024-02-28T10:17:01;31.55;;;15.60;;
59024;SDS011;44806;48.008;13.666;2024-02-28T10:19:28;28.83;;;14.57;;
59024;SDS011;44806;48.008;13.666;2024-02-28T10:21:55;32.95;;;15.48;;
59024;SDS011;44806;48.008;13.666;2024-02-28T10:24:23;31.42;;;15.27;;
59024;SDS011;44806;48.008;13.666;2024-02-28T10:26:52;31.45;;;15.48;;
59024;SDS011;44806;48.008;13.666;2024-02-28T10:29:22;27.02;;;13.77;;
59024;SDS011;44806;48.008;13.666;2024-02-28T10:31:49;28.42;;;14.38;;
59024;SDS011;44806;48.008;13.666;2024-02-28T10:34:17;32.38;;;14.25;;
59024;SDS011;44806;48.008;13.666;2024-02-28T10:36:44;32.42;;;14.80;;
59024;SDS011;44806;48.008;13.666;2024-02-28T10:39:12;31.13;;;13.68;;
59024;SDS011;44806;48.008;13.666;2024-02-28T10:41:41;27.23;;;13.18;;
59024;SDS011;44806;48.008;13.666;2024-02-28T10:44:11;34.92;;;16.23;;
59024;SDS011;44806;48.008;13.666;2024-02-28T10:46:40;31.35;;;15.38;;
59024;SDS011;44806;48.008;13.666;2024-02-28T10:49:08;31.60;;;14.48;;
59024;SDS011;44806;48.008;13.666;2024-02-28T10:51:36;30.52;;;15.23;;
59024;SDS011;44806;48.008;13.666;2024-02-28T10:54:07;27.60;;;14.38;;
59024;SDS011;44806;48.008;13.666;2024-02-28T10:56:36;26.33;;;12.32;;
59024;SDS011;44806;48.008;13.666;2024-02-28T10:59:03;29.15;;;14.18;;
59024;SDS011;44806;48.008;13.666;2024-02-28T11:01:35;29.60;;;15.25;;
59024;SDS011;44806;48.008;13.666;2024-02-28T11:04:03;32.47;;;15.52;;
59024;SDS011;44806;48.008;13.666;2024-02-28T11:06:31;26.83;;;13.52;;
59024;SDS011;44806;48.008;13.666;2024-02-28T11:08:59;27.23;;;11.88;;
59024;SDS011;44806;48.008;13.666;2024-02-28T11:11:29;29.05;;;13.55;;
59024;SDS011;44806;48.008;13.666;2024-02-28T11:13:57;26.65;;;11.15;;
59024;SDS011;44806;48.008;13.666;2024-02-28T11:16:26;30.70;;;13.98;;
59024;SDS011;44806;48.008;13.666;2024-02-28T11:18:56;34.35;;;14.00;;
59024;SDS011;44806;48.008;13.666;2024-02-28T11:21:23;32.13;;;15.48;;
59024;SDS011;44806;48.008;13.666;2024-02-28T11:23:52;29.00;;;14.18;;
59024;SDS011;44806;48.008;13.666;2024-02-28T11:26:23;33.35;;;15.68;;
59024;SDS011;44806;48.008;13.666;2024-02-28T11:28:50;34.10;;;15.25;;
59024;SDS011;44806;48.008;13.666;2024-02-28T11:31:17;31.27;;;13.85;;
59024;SDS011;44806;48.008;13.666;2024-02-28T11:33:44;31.70;;;14.25;;
59024;SDS011;44806;48.008;13.666;2024-02-28T11:36:13;28.83;;;14.52;;
59024;SDS011;44806;48.008;13.666;2024-02-28T11:38:40;32.83;;;15.88;;
59024;SDS011;44806;48.008;13.666;2024-02-28T11:41:08;29.88;;;14.73;;
59024;SDS011;44806;48.008;13.666;2024-02-28T11:43:35;32.80;;;14.95;;
59024;SDS011;44806;48.008;13.666;2024-02-28T11:46:02;31.40;;;15.30;;
59024;SDS011;44806;48.008;13.666;2024-02-28T11:48:34;29.60;;;14.60;;
59024;SDS011;44806;48.008;13.666;2024-02-28T11:51:01;30.67;;;14.25;;
59024;SDS011;44806;48.008;13.666;2024-02-28T11:53:30;28.38;;;14.45;;
59024;SDS011;44806;48.008;13.666;2024-02-28T11:55:57;32.78;;;15.10;;
59024;SDS011;44806;48.008;13.666;2024-02-28T11:58:24;35.15;;;16.23;;
59024;SDS011;44806;48.008;13.666;2024-02-28T12:00:51;32.58;;;16.05;;
59024;SDS011;44806;48.008;13.666;2024-02-28T12:03:19;32.85;;;14.45;;
59024;SDS011;44806;48.008;13.666;2024-02-28T12:05:47;28.20;;;13.45;;
59024;SDS011;44806;48.008;13.666;2024-02-28T12:08:15;32.53;;;15.55;;
59024;SDS011;44806;48.008;13.666;2024-02-28T12:10:46;35.95;;;15.77;;
59024;SDS011;44806;48.008;13.666;2024-02-28T12:13:17;33.47;;;14.93;;
59024;SDS011;44806;48.008;13.666;2024-02-28T12:15:44;35.28;;;17.05;;
59024;SDS011;44806;48.008;13.666;2024-02-28T12:18:14;34.00;;;16.10;;
59024;SDS011;44806;48.008;13.666;2024-02-28T12:20:41;31.20;;;15.00;;
59024;SDS011;44806;48.008;13.666;2024-02-28T12:23:08;37.42;;;17.95;;
59024;SDS011;44806;48.008;13.666;2024-02-28T12:25:36;32.55;;;15.90;;
59024;SDS011;44806;48.008;13.666;2024-02-28T12:28:05;31.65;;;14.52;;
59024;SDS011;44806;48.008;13.666;2024-02-28T12:30:38;35.92;;;17.05;;
59024;SDS011;44806;48.008;13.666;2024-02-28T12:33:06;28.73;;;14.40;;
59024;SDS011;44806;48.008;13.666;2024-02-28T12:35:33;29.85;;;15.07;;
59024;SDS011;44806;48.008;13.666;2024-02-28T12:38:00;36.25;;;16.95;;
59024;SDS011;44806;48.008;13.666;2024-02-28T12:40:27;31.38;;;15.30;;
59024;SDS011;44806;48.008;13.666;2024-02-28T12:42:54;32.83;;;16.30;;
59024;SDS011;44806;48.008;13.666;2024-02-28T12:45:23;29.08;;;13.68;;
59024;SDS011;44806;48.008;13.666;2024-02-28T12:47:50;30.92;;;14.32;;
59024;SDS011;44806;48.008;13.666;2024-02-28T12:50:19;33.42;;;14.63;;
59024;SDS011;44806;48.008;13.666;2024-02-28T12:52:47;31.40;;;14.18;;
59024;SDS011;44806;48.008;13.666;2024-02-28T12:55:18;33.88;;;15.50;;
59024;SDS011;44806;48.008;13.666;2024-02-28T12:57:46;40.75;;;16.83;;
59024;SDS011;44806;48.008;13.666;2024-02-28T13:00:13;30.80;;;15.57;;
59024;SDS011;44806;48.008;13.666;2024-02-28T13:02:42;32.80;;;16.85;;
59024;SDS011;44806;48.008;13.666;2024-02-28T13:05:10;34.38;;;16.27;;
59024;SDS011;44806;48.008;13.666;2024-02-28T13:07:38;30.83;;;13.85;;
59024;SDS011;44806;48.008;13.666;2024-02-28T13:10:05;30.73;;;16.33;;
59024;SDS011;44806;48.008;13.666;2024-02-28T13:12:34;37.25;;;16.38;;
59024;SDS011;44806;48.008;13.666;2024-02-28T13:15:01;34.97;;;16.77;;
59024;SDS011;44806;48.008;13.666;2024-02-28T13:17:30;36.70;;;15.38;;
59024;SDS011;44806;48.008;13.666;2024-02-28T13:19:59;35.67;;;15.00;;
59024;SDS011;44806;48.008;13.666;2024-02-28T13:22:26;36.75;;;16.13;;
59024;SDS011;44806;48.008;13.666;2024-02-28T13:24:53;34.17;;;16.00;;
59024;SDS011;44806;48.008;13.666;2024-02-28T13:27:20;34.30;;;14.70;;
59024;SDS011;44806;48.008;13.666;2024-02-28T13:29:47;39.30;;;16.88;;
59024;SDS011;44806;48.008;13.666;2024-02-28T13:32:14;34.13;;;15.00;;
59024;SDS011;44806;48.008;13.666;2024-02-28T13:34:41;36.40;;;16.75;;
59024;SDS011;44806;48.008;13.666;2024-02-28T13:37:09;33.95;;;15.65;;
59024;SDS011;44806;48.008;13.666;2024-02-28T13:39:36;29.92;;;13.65;;
59024;SDS011;44806;48.008;13.666;2024-02-28T13:42:03;38.10;;;14.90;;
59024;SDS011;44806;48.008;13.666;2024-02-28T13:44:32;31.52;;;15.40;;
59024;SDS011;44806;48.008;13.666;2024-02-28T13:47:01;35.10;;;15.18;;
59024;SDS011;44806;48.008;13.666;2024-02-28T13:49:29;35.42;;;15.68;;
59024;SDS011;44806;48.008;13.666;2024-02-28T13:51:56;41.65;;;16.73;;
59024;SDS011;44806;48.008;13.666;2024-02-28T13:54:24;34.67;;;14.85;;
59024;SDS011;44806;48.008;13.666;2024-02-28T13:56:51;37.20;;;16.70;;
59024;SDS011;44806;48.008;13.666;2024-02-28T13:59:18;36.20;;;14.60;;
59024;SDS011;44806;48.008;13.666;2024-02-28T14:01:45;35.88;;;16.73;;
59024;SDS011;44806;48.008;13.666;2024-02-28T14:04:12;32.90;;;14.20;;
59024;SDS011;44806;48.008;13.666;2024-02-28T14:06:39;34.03;;;14.20;;
59024;SDS011;44806;48.008;13.666;2024-02-28T14:09:06;30.23;;;12.88;;
59024;SDS011;44806;48.008;13.666;2024-02-28T14:11:35;32.95;;;14.80;;
59024;SDS011;44806;48.008;13.666;2024-02-28T14:14:02;32.28;;;14.40;;